Time;durP1;ratioP1;P1;durP2;ratioP2;P2;SDS_P1;SDS_P2;PMS_P1;PMS_P2;Temp;Humidity;BMP_temperature;BMP_pressure;BME280_temperature;BME280_humidity;BME280_pressure;Samples;Min_cycle;Max_cycle;Signal;HPM_P1;HPM_P2
2024/02/02 00:01:36;;;;;;;74.53;28.27;;;11.10;71.90;;;6.13;100.00;96992.28;4952534;28;20060;-57
2024/02/02 00:04:03;;;;;;;63.08;28.15;;;11.10;71.80;;;6.13;100.00;96994.91;4952716;28;20030;-57
2024/02/02 00:06:29;;;;;;;54.13;26.85;;;11.00;71.80;;;6.13;100.00;96994.09;4952071;28;20026;-59
2024/02/02 00:08:55;;;;;;;66.35;28.70;;;11.00;71.80;;;6.11;100.00;96989.03;4954215;28;20381;-58
2024/02/02 00:11:22;;;;;;;73.72;29.98;;;11.00;71.80;;;6.12;100.00;96982.72;4952697;28;20038;-57
2024/02/02 00:13:48;;;;;;;55.63;27.63;;;11.00;71.80;;;6.13;100.00;96986.97;4952900;28;20105;-54
2024/02/02 00:16:14;;;;;;;61.08;27.65;;;11.00;71.90;;;6.05;100.00;96983.69;4949908;28;20064;-55
2024/02/02 00:18:40;;;;;;;70.95;28.98;;;11.00;71.80;;;6.00;100.00;96979.03;4953009;28;20023;-55
2024/02/02 00:21:06;;;;;;;72.45;29.25;;;10.90;71.80;;;6.01;100.00;96988.59;4952026;28;20023;-54
2024/02/02 00:23:32;;;;;;;61.00;28.50;;;10.90;71.80;;;6.07;100.00;96985.13;4953135;28;20029;-54
2024/02/02 00:25:57;;;;;;;55.97;26.55;;;10.90;71.80;;;6.10;100.00;96990.03;4950380;28;20031;-51
2024/02/02 00:28:23;;;;;;;60.30;28.38;;;10.90;71.90;;;6.12;100.00;96987.19;4952582;28;20080;-52
2024/02/02 00:33:18;;;;;;;59.25;27.30;;;10.90;72.00;;;6.13;100.00;96989.63;4929450;29;20414;-54
2024/02/02 00:35:43;;;;;;;49.05;25.98;;;11.00;72.10;;;6.13;100.00;96992.28;4927838;28;20118;-56
2024/02/02 00:38:09;;;;;;;54.47;26.67;;;11.00;72.10;;;6.14;100.00;96996.56;4932344;29;20114;-57
2024/02/02 00:40:35;;;;;;;58.42;26.63;;;11.00;72.10;;;6.11;100.00;96996.13;4932001;29;20031;-57
2024/02/02 00:43:02;;;;;;;68.80;29.45;;;11.00;72.00;;;6.07;100.00;97001.00;4951026;28;20153;-55
2024/02/02 00:45:28;;;;;;;71.88;30.75;;;11.00;71.90;;;6.06;100.00;96995.94;4950630;28;20019;-56
2024/02/02 00:47:54;;;;;;;58.70;28.60;;;11.00;71.90;;;6.08;100.00;97002.66;4949650;28;20038;-57
2024/02/02 00:50:19;;;;;;;64.32;28.95;;;11.00;71.90;;;6.06;100.00;96998.59;4948271;28;20077;-53
2024/02/02 00:52:45;;;;;;;69.03;30.05;;;11.00;71.90;;;6.06;100.00;97001.22;4948451;28;20026;-52
2024/02/02 00:55:11;;;;;;;69.47;31.25;;;11.00;71.90;;;6.07;100.00;97001.00;4949333;28;20029;-56
2024/02/02 00:57:37;;;;;;;78.00;32.63;;;11.00;71.90;;;6.10;100.00;97011.19;4951363;28;20034;-57
2024/02/02 01:00:05;;;;;;;81.82;32.88;;;10.90;71.90;;;6.09;100.00;97016.69;4949739;28;20026;-57
2024/02/02 01:02:32;;;;;;;80.20;32.45;;;10.90;72.00;;;6.08;100.00;97026.47;4950279;28;20045;-55
2024/02/02 01:04:58;;;;;;;82.57;33.28;;;10.90;72.10;;;6.08;100.00;97023.81;4948533;28;20018;-52
2024/02/02 01:07:24;;;;;;;71.82;30.55;;;10.90;72.20;;;6.07;100.00;97027.47;4941053;28;20044;-55
2024/02/02 01:09:50;;;;;;;83.20;30.25;;;10.90;72.20;;;6.07;100.00;97034.59;4953286;28;20516;-57
2024/02/02 01:12:16;;;;;;;91.40;30.17;;;10.90;72.20;;;6.02;100.00;97032.56;4949170;28;20030;-57
2024/02/02 01:14:42;;;;;;;70.47;28.88;;;10.90;72.10;;;6.01;100.00;97034.38;4950092;28;20030;-58
2024/02/02 01:17:08;;;;;;;81.57;29.90;;;10.90;72.10;;;6.00;100.00;97045.16;4950142;28;20049;-56
2024/02/02 01:19:36;;;;;;;86.22;33.03;;;10.90;72.10;;;6.00;100.00;97045.97;4946551;28;20039;-57
2024/02/02 01:22:03;;;;;;;69.35;29.50;;;10.90;72.10;;;6.01;100.00;97039.66;4951447;28;20038;-58
2024/02/02 01:24:30;;;;;;;72.82;30.85;;;10.90;72.00;;;6.00;100.00;97040.69;4950963;28;20026;-56
2024/02/02 01:26:56;;;;;;;82.20;30.90;;;10.90;72.10;;;6.00;100.00;97043.31;4947220;28;20122;-54
2024/02/02 01:29:27;;;;;;;70.88;29.10;;;10.90;72.00;;;5.95;100.00;97045.75;4949061;28;20113;-55
2024/02/02 01:31:53;;;;;;;78.60;30.60;;;10.90;72.00;;;5.95;100.00;97037.81;4944037;28;20120;-54
2024/02/02 01:34:19;;;;;;;80.25;29.85;;;10.90;71.90;;;5.95;100.00;97037.00;4949131;28;20074;-57
2024/02/02 01:36:44;;;;;;;69.97;30.65;;;10.80;72.00;;;5.94;100.00;97030.09;4949932;28;20042;-55
2024/02/02 01:39:11;;;;;;;74.55;29.35;;;10.80;72.00;;;5.89;100.00;97037.75;4950540;28;20034;-55
2024/02/02 01:41:40;;;;;;;77.13;30.80;;;10.80;71.90;;;5.84;100.00;97042.84;4943596;28;20039;-56
2024/02/02 01:44:09;;;;;;;77.45;29.13;;;10.70;71.80;;;5.76;100.00;97035.91;4946394;28;20034;-57
2024/02/02 01:46:35;;;;;;;82.25;31.52;;;10.60;71.80;;;5.73;100.00;97038.94;4949830;28;20126;-56
2024/02/02 01:49:01;;;;;;;78.25;31.40;;;10.60;71.80;;;5.71;100.00;97036.50;4947990;28;20162;-58
2024/02/02 01:51:27;;;;;;;93.85;30.80;;;10.50;71.90;;;5.64;100.00;97030.38;4949969;28;20086;-54
2024/02/02 01:53:54;;;;;;;73.80;28.35;;;10.50;72.00;;;5.63;100.00;97026.09;4947975;28;20153;-56
2024/02/02 01:56:21;;;;;;;89.95;29.85;;;10.40;72.00;;;5.56;100.00;97028.72;4944414;28;20436;-53
2024/02/02 01:58:49;;;;;;;86.82;29.42;;;10.40;71.90;;;5.52;100.00;97026.69;4946275;28;20022;-55
2024/02/02 02:01:15;;;;;;;108.63;29.92;;;10.40;71.90;;;5.44;100.00;97026.81;4946681;28;20030;-55
2024/02/02 02:03:43;;;;;;;108.35;28.02;;;10.40;71.90;;;5.41;100.00;97017.47;4949539;28;20367;-57
2024/02/02 02:06:09;;;;;;;184.93;32.38;;;10.30;71.80;;;5.33;100.00;97015.81;4944982;28;20175;-56
2024/02/02 02:08:36;;;;;;;162.43;32.92;;;10.20;71.60;;;5.29;100.00;97014.56;4951702;28;20429;-55
2024/02/02 02:11:03;;;;;;;462.67;38.40;;;10.20;71.80;;;5.23;100.00;97018.00;4945073;28;20034;-57
2024/02/02 02:13:30;;;;;;;200.30;33.45;;;10.20;71.90;;;5.13;100.00;97016.72;4950556;28;20033;-55
2024/02/02 02:15:56;;;;;;;213.88;34.25;;;10.10;71.90;;;5.15;100.00;97004.94;4949890;28;20402;-56
2024/02/02 02:18:22;;;;;;;196.13;30.55;;;10.10;72.00;;;5.13;100.00;97004.31;4931109;29;20035;-56
2024/02/02 02:20:53;;;;;;;170.93;31.88;;;10.10;72.00;;;5.07;100.00;97008.53;4947124;28;20030;-57
2024/02/02 02:23:19;;;;;;;365.70;36.55;;;10.00;72.00;;;5.07;100.00;97000.63;4949536;29;20112;-57
2024/02/02 02:25:45;;;;;;;271.90;31.42;;;10.00;72.00;;;4.85;100.00;97005.16;4947600;28;20046;-53
2024/02/02 02:28:11;;;;;;;186.52;30.08;;;10.00;72.00;;;4.85;100.00;97007.81;4954121;28;20037;-57
2024/02/02 02:30:37;;;;;;;96.82;27.15;;;9.90;71.80;;;4.80;100.00;97012.06;4965478;28;20401;-58
2024/02/02 02:33:05;;;;;;;161.63;34.95;;;9.90;71.90;;;4.90;100.00;97014.34;4951414;28;20046;-54
2024/02/02 02:35:31;;;;;;;181.73;32.08;;;9.90;72.00;;;4.95;100.00;97001.38;4947487;28;20046;-55
2024/02/02 02:37:57;;;;;;;145.35;31.27;;;9.90;73.00;;;4.98;100.00;96993.06;4941134;28;20038;-54
2024/02/02 02:40:23;;;;;;;167.93;32.35;;;9.90;72.40;;;5.01;100.00;96982.09;4939317;28;20027;-53
2024/02/02 02:42:50;;;;;;;98.35;31.77;;;9.90;72.40;;;5.02;100.00;96989.84;4939511;28;20466;-55
2024/02/02 02:45:17;;;;;;;88.63;27.00;;;9.90;72.40;;;5.02;100.00;96995.13;4943633;28;20797;-55
2024/02/02 02:47:43;;;;;;;99.85;26.38;;;9.90;72.40;;;5.06;100.00;96993.72;4948931;28;20113;-58
2024/02/02 02:50:09;;;;;;;80.78;25.75;;;10.00;72.50;;;5.09;100.00;96993.34;4946574;28;20029;-57
2024/02/02 02:52:36;;;;;;;181.90;39.78;;;10.00;72.40;;;5.12;100.00;96991.31;4942787;28;20031;-58
2024/02/02 02:55:02;;;;;;;243.90;41.33;;;10.00;72.40;;;5.15;100.00;96989.09;4938299;28;20031;-55
2024/02/02 02:57:28;;;;;;;147.90;33.75;;;10.00;72.50;;;5.17;100.00;96987.09;4960560;28;20046;-58
2024/02/02 02:59:54;;;;;;;170.18;33.13;;;10.00;72.60;;;5.22;100.00;96982.00;4950178;28;20333;-54
2024/02/02 03:02:20;;;;;;;321.98;45.88;;;10.10;72.70;;;5.27;100.00;96981.44;4955653;28;20042;-56
2024/02/02 03:04:46;;;;;;;288.48;38.95;;;10.10;72.70;;;5.31;100.00;96980.03;4939851;28;20765;-57
2024/02/02 03:07:11;;;;;;;452.13;44.95;;;10.10;72.70;;;5.32;100.00;96982.44;4945897;28;20359;-56
2024/02/02 03:09:37;;;;;;;378.48;44.40;;;10.10;72.70;;;5.35;100.00;96981.25;4944621;28;20742;-54
2024/02/02 03:12:04;;;;;;;411.85;47.65;;;10.10;72.70;;;5.37;100.00;96991.63;4942718;28;20038;-56
2024/02/02 03:14:30;;;;;;;600.75;56.08;;;10.10;72.80;;;5.41;100.00;96993.69;4949685;28;20061;-56
2024/02/02 03:16:56;;;;;;;510.08;49.03;;;10.20;72.90;;;5.43;100.00;96977.63;4948519;28;20501;-56
2024/02/02 03:19:22;;;;;;;565.05;51.67;;;10.20;73.00;;;5.44;100.00;96977.44;4941914;28;20027;-54
2024/02/02 03:21:48;;;;;;;570.03;52.53;;;10.20;73.00;;;5.46;100.00;96971.97;4940178;28;20548;-56
2024/02/02 03:24:14;;;;;;;664.25;51.92;;;10.20;73.00;;;5.48;100.00;96968.06;4947351;28;20060;-58
2024/02/02 03:26:40;;;;;;;803.97;61.35;;;10.20;73.00;;;5.48;100.00;96970.72;4945197;28;20400;-57
2024/02/02 03:29:06;;;;;;;773.50;58.70;;;10.20;73.10;;;5.47;100.00;96973.56;4949103;28;20113;-57
2024/02/02 03:31:32;;;;;;;749.47;56.45;;;10.20;73.10;;;5.48;100.00;96973.38;4941431;28;20535;-57
2024/02/02 03:33:58;;;;;;;672.13;53.38;;;10.20;73.00;;;5.47;100.00;96974.38;4946914;28;20085;-56
2024/02/02 03:36:24;;;;;;;616.60;51.13;;;10.20;73.00;;;5.47;100.00;96978.88;4950106;28;20474;-57
2024/02/02 03:38:49;;;;;;;634.05;48.17;;;10.20;73.00;;;5.43;100.00;96973.16;4937243;28;20019;-58
2024/02/02 03:41:17;;;;;;;546.67;48.90;;;10.20;73.00;;;5.41;100.00;96975.19;4936763;28;20470;-57
2024/02/02 03:43:43;;;;;;;512.63;43.88;;;10.20;72.90;;;5.40;100.00;96967.47;4939146;28;20054;-54
2024/02/02 03:46:09;;;;;;;569.97;47.78;;;10.20;72.90;;;5.40;100.00;96972.75;4943249;28;20051;-54
2024/02/02 03:48:35;;;;;;;618.17;43.95;;;10.20;72.90;;;5.40;100.00;96970.09;4939999;28;20038;-58
2024/02/02 03:51:01;;;;;;;511.35;44.42;;;10.20;72.90;;;5.40;100.00;96962.19;4942327;28;20034;-57
2024/02/02 03:53:26;;;;;;;527.88;47.90;;;10.20;73.00;;;5.39;100.00;96971.94;4941391;28;20027;-55
2024/02/02 03:55:52;;;;;;;554.67;47.47;;;10.20;73.10;;;5.38;100.00;96986.16;4946862;28;20031;-55
2024/02/02 03:58:18;;;;;;;615.28;52.38;;;10.20;73.00;;;5.36;100.00;96979.41;4934603;28;20031;-58
2024/02/02 04:00:45;;;;;;;594.17;48.95;;;10.20;73.10;;;5.32;100.00;96974.53;4944576;28;20090;-58
2024/02/02 04:03:11;;;;;;;539.70;49.28;;;10.20;73.00;;;5.30;100.00;96981.84;4939401;28;20030;-56
2024/02/02 04:05:39;;;;;;;600.53;49.72;;;10.20;73.00;;;5.31;100.00;96978.19;4938145;28;20486;-56
2024/02/02 04:08:06;;;;;;;425.88;43.60;;;10.20;73.00;;;5.30;100.00;96987.13;4941010;28;20034;-58
2024/02/02 04:10:32;;;;;;;630.60;52.08;;;10.20;73.00;;;5.31;100.00;96991.41;4942988;28;20030;-50
2024/02/02 04:12:58;;;;;;;582.85;52.55;;;10.20;73.10;;;5.29;100.00;96989.97;4938084;28;20430;-54
2024/02/02 04:15:24;;;;;;;564.08;46.75;;;10.20;73.10;;;5.30;100.00;96983.69;4951712;28;20126;-59
2024/02/02 04:17:50;;;;;;;287.45;38.05;;;10.10;73.10;;;5.29;100.00;96997.88;4938982;28;20200;-58
2024/02/02 04:20:16;;;;;;;698.85;53.53;;;10.10;73.10;;;5.27;100.00;96989.38;4937395;28;20090;-57
2024/02/02 04:22:42;;;;;;;806.78;59.08;;;10.10;73.20;;;5.26;100.00;96987.72;4939109;28;20395;-55
2024/02/02 04:25:08;;;;;;;646.15;56.65;;;10.10;73.20;;;5.26;100.00;96990.34;4963509;28;20385;-56
2024/02/02 04:27:34;;;;;;;710.72;68.53;;;10.10;73.20;;;5.28;100.00;97004.19;4944041;28;20035;-57
2024/02/02 04:30:00;;;;;;;430.85;49.60;;;10.10;73.20;;;5.28;100.00;97005.00;4945077;28;20023;-55
2024/02/02 04:32:32;;;;;;;621.72;58.45;;;10.10;73.20;;;5.28;100.00;96999.72;4940240;28;20051;-55
2024/02/02 04:34:58;;;;;;;519.03;54.80;;;10.10;73.40;;;5.26;100.00;97001.72;4951472;28;20037;-57
2024/02/02 04:37:25;;;;;;;574.45;56.63;;;10.10;73.30;;;5.25;100.00;97002.75;4938110;28;20065;-56
2024/02/02 04:39:50;;;;;;;713.67;64.32;;;10.10;73.30;;;5.23;100.00;97006.59;4943042;28;20030;-53
2024/02/02 04:42:16;;;;;;;758.33;64.65;;;10.10;73.40;;;5.19;100.00;97010.66;4938307;28;20045;-56
2024/02/02 04:44:42;;;;;;;662.17;56.67;;;10.00;73.40;;;5.13;100.00;97009.59;4939732;28;20033;-56
2024/02/02 04:47:08;;;;;;;738.33;60.72;;;10.00;73.30;;;5.08;100.00;97006.75;4945023;28;20544;-57
2024/02/02 04:49:35;;;;;;;656.50;53.80;;;10.00;73.40;;;5.15;100.00;97014.69;4947137;28;20041;-55
2024/02/02 04:52:01;;;;;;;626.08;54.95;;;10.00;73.50;;;5.18;100.00;97017.78;4935631;28;20035;-57
2024/02/02 04:54:27;;;;;;;702.42;60.50;;;10.00;73.50;;;5.20;100.00;97020.19;4945766;28;20054;-58
2024/02/02 04:56:53;;;;;;;762.15;64.47;;;10.00;73.60;;;5.19;100.00;97018.56;4935991;28;20035;-57
2024/02/02 04:59:19;;;;;;;322.05;46.33;;;10.00;73.60;;;5.18;100.00;97020.41;4963021;28;20359;-59
2024/02/02 05:01:45;;;;;;;406.75;52.53;;;10.00;73.60;;;5.21;100.00;97022.66;4940359;28;20049;-57
2024/02/02 05:04:11;;;;;;;725.58;63.25;;;10.00;73.60;;;5.23;100.00;97031.22;4945479;28;20106;-56
2024/02/02 05:06:37;;;;;;;212.45;37.83;;;10.00;73.60;;;5.25;100.00;97028.38;4945068;28;20030;-58
2024/02/02 05:09:02;;;;;;;180.05;35.75;;;10.00;73.60;;;5.24;100.00;97030.19;4943279;28;20019;-58
2024/02/02 05:11:28;;;;;;;197.25;34.63;;;10.00;73.50;;;5.22;100.00;97020.81;4932299;28;20037;-56
2024/02/02 05:13:54;;;;;;;225.95;37.08;;;10.00;73.40;;;5.16;100.00;97013.69;4940227;28;20034;-56
2024/02/02 05:16:20;;;;;;;187.32;33.00;;;10.00;73.30;;;5.14;100.00;97021.81;4940108;28;20090;-57
2024/02/02 05:18:46;;;;;;;695.42;59.80;;;10.00;73.30;;;5.08;100.00;97023.41;4943067;28;20063;-59
2024/02/02 05:21:12;;;;;;;413.67;46.08;;;10.00;73.20;;;5.06;100.00;97027.25;4940737;28;20019;-58
2024/02/02 05:23:38;;;;;;;466.63;50.83;;;10.00;73.30;;;5.03;100.00;97025.81;4936519;28;20035;-59
2024/02/02 05:26:05;;;;;;;302.30;42.28;;;9.90;73.20;;;5.03;100.00;97022.34;4946395;28;20019;-57
2024/02/02 05:28:31;;;;;;;651.30;55.20;;;9.90;73.20;;;5.01;100.00;97022.53;4951815;28;20509;-58
2024/02/02 05:30:57;;;;;;;727.83;59.13;;;9.90;73.20;;;5.02;100.00;97021.53;4939388;28;20023;-57
2024/02/02 05:33:23;;;;;;;506.48;45.03;;;9.90;73.30;;;5.04;100.00;97021.34;4950433;28;20138;-56
2024/02/02 05:35:49;;;;;;;242.52;37.55;;;9.90;73.30;;;5.05;100.00;97018.50;4945916;28;20042;-56
2024/02/02 05:38:15;;;;;;;453.15;44.80;;;9.90;73.30;;;5.07;100.00;97016.47;4941766;28;20031;-55
2024/02/02 05:40:41;;;;;;;405.38;42.15;;;9.90;73.30;;;5.04;100.00;97014.22;4939727;28;20084;-59
2024/02/02 05:43:10;;;;;;;453.27;48.78;;;9.90;73.30;;;5.05;100.00;97007.13;4937030;28;20027;-57
2024/02/02 05:45:36;;;;;;;370.75;45.17;;;9.90;73.40;;;5.04;100.00;97003.66;4941634;28;20026;-54
2024/02/02 05:48:03;;;;;;;504.95;51.40;;;9.90;73.30;;;5.00;100.00;97006.88;4949576;28;20031;-56
2024/02/02 05:50:28;;;;;;;849.42;64.65;;;9.90;73.30;;;4.99;100.00;97002.63;4945171;28;20037;-57
2024/02/02 05:52:54;;;;;;;890.38;65.05;;;9.90;73.30;;;4.94;100.00;97005.03;4937060;28;20038;-56
2024/02/02 05:55:20;;;;;;;576.10;51.80;;;9.90;73.40;;;4.97;100.00;97012.56;4938585;28;20607;-56
2024/02/02 05:57:46;;;;;;;766.22;62.28;;;9.90;73.40;;;4.99;100.00;97016.66;4941983;28;20034;-56
2024/02/02 06:00:13;;;;;;;748.55;58.20;;;9.90;73.50;;;4.97;100.00;97017.84;4939532;28;20038;-57
2024/02/02 06:02:39;;;;;;;785.75;60.33;;;9.80;73.50;;;5.01;100.00;97019.06;4943696;28;20050;-57
2024/02/02 06:05:05;;;;;;;711.65;57.67;;;9.80;73.50;;;5.02;100.00;97028.66;4945484;28;20057;-53
2024/02/02 06:07:32;;;;;;;792.03;63.03;;;9.80;73.50;;;5.02;100.00;97028.66;4935973;28;20034;-56
2024/02/02 06:09:57;;;;;;;661.03;58.33;;;9.80;73.60;;;5.01;100.00;97038.38;4936729;28;20019;-56
2024/02/02 06:12:23;;;;;;;748.88;57.45;;;9.90;73.60;;;4.99;100.00;97026.41;4962806;28;20027;-53
2024/02/02 06:14:49;;;;;;;809.40;61.30;;;9.90;73.60;;;5.00;100.00;97022.75;4947084;28;20023;-52
2024/02/02 06:17:15;;;;;;;620.95;49.60;;;9.80;73.60;;;4.99;100.00;97021.13;4941314;28;20027;-55
2024/02/02 06:19:41;;;;;;;671.92;55.47;;;9.90;73.60;;;5.00;100.00;97041.22;4940768;28;20057;-56
2024/02/02 06:22:07;;;;;;;797.40;57.08;;;9.90;73.70;;;4.95;100.00;97041.81;4935386;28;20042;-56
2024/02/02 06:24:33;;;;;;;607.35;51.13;;;9.80;73.60;;;4.86;100.00;97048.25;4944539;28;20093;-58
2024/02/02 06:26:58;;;;;;;753.38;59.08;;;9.80;73.60;;;4.86;100.00;97051.72;4939689;28;20049;-54
2024/02/02 06:29:24;;;;;;;831.90;65.05;;;9.80;73.50;;;4.80;100.00;97057.75;4957739;28;20033;-56
2024/02/02 06:31:50;;;;;;;573.33;50.63;;;9.80;73.50;;;4.83;100.00;97062.66;4964745;23;20093;-51
2024/02/02 06:34:16;;;;;;;867.95;65.15;;;9.70;73.50;;;4.82;100.00;97066.28;4934231;29;20119;-52
2024/02/02 06:36:42;;;;;;;684.38;55.58;;;9.70;73.60;;;4.83;100.00;97070.56;4941205;28;20038;-50
2024/02/02 06:39:08;;;;;;;625.25;52.13;;;9.80;73.70;;;4.85;100.00;97075.66;4942630;29;20035;-51
2024/02/02 06:41:34;;;;;;;905.53;66.40;;;9.70;73.70;;;4.84;100.00;97079.31;4937476;28;20031;-51
2024/02/02 06:44:00;;;;;;;897.42;73.15;;;9.70;73.70;;;4.84;100.00;97084.59;4939207;28;20018;-51
2024/02/02 06:46:26;;;;;;;673.92;62.08;;;9.70;73.80;;;4.86;100.00;97093.13;4940952;29;20106;-53
2024/02/02 06:48:51;;;;;;;706.97;64.72;;;9.70;73.80;;;4.91;100.00;97093.38;4935626;29;20027;-51
2024/02/02 06:51:17;;;;;;;697.88;62.95;;;9.70;73.90;;;4.93;100.00;97093.19;4938261;29;20027;-54
2024/02/02 06:53:44;;;;;;;816.05;66.45;;;9.80;74.00;;;4.95;100.00;97091.16;4935750;28;20387;-52
2024/02/02 06:56:38;;;;;;;753.03;55.85;;;9.80;74.00;;;4.93;100.00;97096.63;4934895;28;20486;-52
2024/02/02 06:59:09;;;;;;;882.53;66.95;;;9.80;74.00;;;4.92;100.00;97094.19;4933075;29;20069;-52
2024/02/02 07:01:37;;;;;;;709.83;57.53;;;9.80;74.00;;;4.92;100.00;97088.91;4929626;29;20033;-55
2024/02/02 07:04:11;;;;;;;961.30;80.53;;;9.80;74.00;;;4.91;100.00;97090.72;4931207;29;20027;-54
2024/02/02 07:06:38;;;;;;;663.10;53.80;;;9.80;73.90;;;4.92;100.00;97097.66;4928392;29;20392;-52
2024/02/02 07:09:31;;;;;;;739.38;58.42;;;9.80;73.80;;;4.97;100.00;97111.09;4930238;29;20031;-51
2024/02/02 07:12:15;;;;;;;656.20;56.33;;;9.90;73.90;;;5.00;100.00;97113.34;4918271;29;20035;-56
2024/02/02 07:14:49;;;;;;;380.38;44.72;;;9.90;73.90;;;4.99;100.00;97118.84;4931065;29;20027;-53
2024/02/02 07:17:41;;;;;;;579.33;50.00;;;9.90;73.80;;;5.05;100.00;97116.25;4935104;28;20038;-52
2024/02/02 07:20:30;;;;;;;757.63;57.42;;;10.00;73.80;;;5.06;100.00;97111.75;4933308;29;20023;-52
2024/02/02 07:23:03;;;;;;;636.33;50.22;;;10.00;73.80;;;5.12;100.00;97126.84;4933777;29;20047;-56
2024/02/02 07:25:40;;;;;;;447.65;43.72;;;10.00;73.80;;;5.12;100.00;97128.69;4933802;29;20023;-53
2024/02/02 07:28:36;;;;;;;497.67;41.97;;;10.10;73.80;;;5.15;100.00;97136.22;4934598;29;20034;-54
2024/02/02 07:31:06;;;;;;;610.30;50.50;;;10.10;73.70;;;5.14;100.00;97140.69;4934441;28;20034;-54
2024/02/02 07:33:47;;;;;;;658.72;53.30;;;10.10;73.60;;;5.17;100.00;97131.53;4926596;29;20039;-51
2024/02/02 07:36:31;;;;;;;382.23;39.85;;;10.20;73.60;;;5.17;100.00;97121.81;4928781;29;20027;-51
2024/02/02 07:38:57;;;;;;;437.38;42.00;;;10.20;73.60;;;5.18;100.00;97126.06;4930729;29;20125;-51
2024/02/02 07:41:28;;;;;;;568.30;47.42;;;10.20;73.50;;;5.18;100.00;97125.28;4933966;29;20033;-51
2024/02/02 07:43:59;;;;;;;611.42;49.85;;;10.20;74.30;;;5.21;100.00;97122.25;4931940;28;20034;-51
2024/02/02 07:46:26;;;;;;;359.73;39.95;;;10.20;73.40;;;5.22;100.00;97132.59;4934538;29;20448;-54
2024/02/02 07:48:54;;;;;;;482.70;44.35;;;10.20;74.20;;;5.24;100.00;97133.25;4931151;28;20051;-56
2024/02/02 07:51:24;;;;;;;240.18;36.78;;;10.20;73.50;;;5.29;100.00;97144.03;4932916;29;20490;-55
2024/02/02 07:53:50;;;;;;;138.82;34.58;;;10.30;73.50;;;5.33;100.00;97152.41;4931852;28;20123;-56
2024/02/02 07:56:18;;;;;;;153.10;35.33;;;10.30;73.50;;;5.36;100.00;97159.94;4933440;28;20163;-55
2024/02/02 07:58:44;;;;;;;142.35;33.20;;;10.30;73.50;;;5.34;100.00;97162.78;4934299;29;20030;-55
2024/02/02 08:01:11;;;;;;;151.27;36.17;;;10.40;73.50;;;5.35;100.00;97160.94;4933036;29;20015;-54
2024/02/02 08:03:37;;;;;;;125.90;32.70;;;10.40;73.40;;;5.41;100.00;97165.47;4933213;29;20038;-54
2024/02/02 08:06:05;;;;;;;123.60;32.20;;;10.50;73.40;;;5.44;100.00;97165.06;4933721;29;20077;-54
2024/02/02 08:08:33;;;;;;;121.38;32.13;;;10.50;73.80;;;5.49;100.00;97160.03;4931832;29;20112;-53
2024/02/02 08:10:59;;;;;;;123.60;33.20;;;10.60;73.40;;;5.53;100.00;97171.03;4934007;29;20023;-57
2024/02/02 08:13:26;;;;;;;146.15;34.70;;;10.60;73.40;;;5.55;100.00;97176.94;4932343;29;20479;-57
2024/02/02 08:15:52;;;;;;;129.73;32.75;;;10.60;73.30;;;5.55;100.00;97185.69;4933399;29;20474;-57
2024/02/02 08:18:18;;;;;;;154.73;33.97;;;10.60;73.30;;;5.57;100.00;97186.28;4933920;29;20065;-54
2024/02/02 08:20:46;;;;;;;131.55;34.72;;;10.70;73.30;;;5.61;100.00;97197.31;4932590;29;20476;-57
2024/02/02 08:23:12;;;;;;;127.03;33.38;;;10.70;73.20;;;5.61;100.00;97189.41;4932887;29;20184;-55
2024/02/02 08:25:38;;;;;;;126.43;32.28;;;10.70;73.20;;;5.63;100.00;97189.19;4931953;29;20023;-57
2024/02/02 08:28:05;;;;;;;118.15;33.92;;;10.70;73.10;;;5.68;100.00;97192.06;4933658;29;20154;-55
2024/02/02 08:30:31;;;;;;;127.85;34.53;;;10.80;73.10;;;5.67;100.00;97193.91;4932245;29;20034;-56
2024/02/02 08:32:57;;;;;;;127.85;34.53;;;10.90;73.00;;;5.73;100.00;97189.66;4931780;29;20109;-57
2024/02/02 08:35:25;;;;;;;122.18;35.10;;;10.90;73.00;;;5.77;100.00;97180.34;4932106;29;20102;-56
2024/02/02 08:38:00;;;;;;;132.63;35.88;;;11.00;73.00;;;5.80;100.00;97172.81;4931136;29;20078;-56
2024/02/02 08:40:43;;;;;;;134.55;35.72;;;11.00;72.90;;;5.81;100.00;97176.28;4930464;29;20410;-55
2024/02/02 08:43:17;;;;;;;122.93;33.42;;;11.10;72.90;;;5.87;100.00;97170.22;4933349;28;20045;-52
2024/02/02 08:45:43;;;;;;;167.80;34.45;;;11.10;72.80;;;5.91;100.00;97175.91;4929567;28;20028;-55
2024/02/02 08:48:32;;;;;;;128.50;32.65;;;11.20;72.70;;;5.91;100.00;97173.28;4932650;29;20374;-51
2024/02/02 08:50:59;;;;;;;135.50;34.85;;;11.20;72.70;;;5.88;100.00;97163.91;4932016;28;20030;-54
2024/02/02 08:53:27;;;;;;;123.72;32.55;;;11.20;72.60;;;5.98;100.00;97169.66;4931225;29;20051;-51
2024/02/02 08:56:00;;;;;;;106.70;30.77;;;11.30;72.60;;;6.01;100.00;97174.56;4932059;28;20026;-53
2024/02/02 08:58:34;;;;;;;100.53;29.25;;;11.30;72.60;;;6.10;100.00;97163.81;4933493;28;20118;-56
2024/02/02 09:01:02;;;;;;;119.70;29.98;;;11.40;72.70;;;6.14;100.00;97160.59;4929324;28;20062;-54
2024/02/02 09:03:43;;;;;;;112.43;29.75;;;11.40;72.60;;;6.16;100.00;97161.19;4932334;28;20146;-52
2024/02/02 09:06:42;;;;;;;105.63;29.88;;;11.50;72.70;;;6.24;100.00;97158.41;4925936;29;20465;-51
2024/02/02 09:09:14;;;;;;;84.72;27.13;;;11.70;72.60;;;6.29;100.00;97160.44;4930619;28;20601;-51
2024/02/02 09:11:47;;;;;;;84.20;27.50;;;11.80;72.50;;;6.41;100.00;97158.84;4929072;29;20051;-53
2024/02/02 09:14:24;;;;;;;107.35;36.17;;;11.90;72.40;;;6.50;100.00;97164.78;4925017;29;20022;-54
2024/02/02 09:16:52;;;;;;;91.13;31.05;;;11.90;72.30;;;6.44;100.00;97160.28;4928194;29;20497;-51
2024/02/02 09:19:45;;;;;;;101.68;35.38;;;11.90;72.20;;;6.43;100.00;97164.75;4929992;28;20062;-53
2024/02/02 09:22:21;;;;;;;75.40;27.20;;;11.90;72.10;;;6.46;100.00;97164.38;4943939;28;20082;-51
2024/02/02 09:24:53;;;;;;;80.40;29.50;;;11.90;72.00;;;6.56;100.00;97187.81;4928854;29;20030;-53
2024/02/02 09:27:38;;;;;;;63.03;24.98;;;11.90;72.00;;;6.48;100.00;97190.63;4928308;29;20089;-50
2024/02/02 09:30:21;;;;;;;64.82;24.50;;;12.00;72.10;;;6.58;100.00;97191.09;4927803;29;20054;-51
2024/02/02 09:32:47;;;;;;;65.75;24.13;;;11.90;72.00;;;6.61;100.00;97193.34;4926710;29;20130;-52
2024/02/02 09:35:53;;;;;;;52.70;22.20;;;12.00;72.10;;;6.68;100.00;97196.00;4926447;28;20122;-50
2024/02/02 09:38:19;;;;;;;59.88;24.85;;;12.10;72.10;;;6.78;100.00;97198.25;4927431;29;20035;-50
2024/02/02 09:41:15;;;;;;;47.45;22.92;;;12.20;72.00;;;6.87;100.00;97199.69;4930465;28;20030;-51
2024/02/02 09:44:03;;;;;;;42.65;20.75;;;12.40;71.90;;;6.89;100.00;97203.78;4930844;28;20027;-51
2024/02/02 09:47:20;;;;;;;44.00;23.40;;;12.50;71.70;;;7.01;100.00;97201.31;4909850;29;20049;-53
2024/02/02 09:50:42;;;;;;;38.65;20.20;;;12.60;71.70;;;7.17;100.00;97198.28;4941188;28;20058;-52
2024/02/02 09:54:10;;;;;;;38.55;21.65;;;12.80;71.70;;;7.43;100.00;97183.41;4918020;29;20101;-51
2024/02/02 09:57:17;;;;;;;29.65;17.25;;;13.10;71.60;;;7.61;100.00;97170.31;4919447;29;20458;-50
2024/02/02 10:00:10;;;;;;;24.73;15.43;;;13.40;71.50;;;7.70;100.00;97178.06;4942883;28;20097;-53
2024/02/02 10:03:19;;;;;;;25.63;16.05;;;13.60;71.00;;;7.91;100.00;97175.16;4925487;29;20035;-49
2024/02/02 10:05:51;;;;;;;21.48;14.15;;;13.90;70.40;;;8.06;100.00;97173.06;4924748;29;20090;-55
2024/02/02 10:09:14;;;;;;;20.50;12.88;;;14.00;70.10;;;8.13;100.00;97167.72;4916256;29;20055;-51
2024/02/02 10:12:09;;;;;;;17.92;12.25;;;14.10;69.60;;;8.28;100.00;97170.94;4921524;29;20027;-51
2024/02/02 10:15:08;;;;;;;18.13;11.98;;;14.20;69.30;;;8.23;100.00;97169.94;4927342;29;20034;-49
2024/02/02 10:18:22;;;;;;;18.75;12.68;;;14.20;69.10;;;8.27;100.00;97174.63;4944294;28;20118;-53